sensor_id;sensor_type;location;lat;lon;timestamp;P1;durP1;ratioP1;P2;durP2;ratioP2
48623;SDS011;75490;45.802;16.114;2024-02-15T00:00:16;39.50;;;22.92;;
48623;SDS011;75490;45.802;16.114;2024-02-15T00:02:43;45.65;;;25.95;;
48623;SDS011;75490;45.802;16.114;2024-02-15T00:05:13;47.20;;;25.63;;
48623;SDS011;75490;45.802;16.114;2024-02-15T00:07:42;47.35;;;25.98;;
48623;SDS011;75490;45.802;16.114;2024-02-15T00:10:10;42.72;;;24.25;;
48623;SDS011;75490;45.802;16.114;2024-02-15T00:12:37;47.50;;;25.92;;
48623;SDS011;75490;45.802;16.114;2024-02-15T00:15:04;43.58;;;23.33;;
48623;SDS011;75490;45.802;16.114;2024-02-15T00:17:31;40.67;;;23.33;;
48623;SDS011;75490;45.802;16.114;2024-02-15T00:19:58;43.30;;;24.98;;
48623;SDS011;75490;45.802;16.114;2024-02-15T00:22:26;46.35;;;25.90;;
48623;SDS011;75490;45.802;16.114;2024-02-15T00:24:53;42.70;;;26.48;;
48623;SDS011;75490;45.802;16.114;2024-02-15T00:27:20;46.40;;;26.00;;
48623;SDS011;75490;45.802;16.114;2024-02-15T00:29:47;47.58;;;27.13;;
48623;SDS011;75490;45.802;16.114;2024-02-15T00:32:14;45.15;;;26.13;;
48623;SDS011;75490;45.802;16.114;2024-02-15T00:34:41;44.80;;;24.83;;
48623;SDS011;75490;45.802;16.114;2024-02-15T00:37:08;45.95;;;26.50;;
48623;SDS011;75490;45.802;16.114;2024-02-15T00:39:34;49.00;;;27.98;;
48623;SDS011;75490;45.802;16.114;2024-02-15T00:42:01;47.85;;;27.75;;
48623;SDS011;75490;45.802;16.114;2024-02-15T00:44:28;46.60;;;28.55;;
48623;SDS011;75490;45.802;16.114;2024-02-15T00:46:55;40.35;;;25.20;;
48623;SDS011;75490;45.802;16.114;2024-02-15T00:49:22;51.35;;;27.65;;
48623;SDS011;75490;45.802;16.114;2024-02-15T00:51:49;48.55;;;26.20;;
48623;SDS011;75490;45.802;16.114;2024-02-15T00:54:16;47.22;;;25.88;;
48623;SDS011;75490;45.802;16.114;2024-02-15T00:56:43;48.63;;;27.42;;
48623;SDS011;75490;45.802;16.114;2024-02-15T00:59:10;47.42;;;26.75;;
48623;SDS011;75490;45.802;16.114;2024-02-15T01:01:37;46.47;;;25.00;;
48623;SDS011;75490;45.802;16.114;2024-02-15T01:04:04;43.70;;;24.77;;
48623;SDS011;75490;45.802;16.114;2024-02-15T01:06:32;42.92;;;23.65;;
48623;SDS011;75490;45.802;16.114;2024-02-15T01:08:59;46.33;;;25.35;;
48623;SDS011;75490;45.802;16.114;2024-02-15T01:11:30;44.33;;;24.33;;
48623;SDS011;75490;45.802;16.114;2024-02-15T01:13:59;41.00;;;23.27;;
48623;SDS011;75490;45.802;16.114;2024-02-15T01:16:26;40.72;;;23.52;;
48623;SDS011;75490;45.802;16.114;2024-02-15T01:18:53;47.20;;;26.00;;
48623;SDS011;75490;45.802;16.114;2024-02-15T01:21:21;44.40;;;24.63;;
48623;SDS011;75490;45.802;16.114;2024-02-15T01:23:48;37.83;;;24.20;;
48623;SDS011;75490;45.802;16.114;2024-02-15T01:26:15;42.35;;;23.42;;
48623;SDS011;75490;45.802;16.114;2024-02-15T01:28:42;44.35;;;23.92;;
48623;SDS011;75490;45.802;16.114;2024-02-15T01:31:10;44.35;;;24.88;;
48623;SDS011;75490;45.802;16.114;2024-02-15T01:33:37;41.00;;;23.92;;
48623;SDS011;75490;45.802;16.114;2024-02-15T01:36:04;45.20;;;26.25;;
48623;SDS011;75490;45.802;16.114;2024-02-15T01:38:32;45.38;;;25.13;;
48623;SDS011;75490;45.802;16.114;2024-02-15T01:40:59;48.22;;;26.35;;
48623;SDS011;75490;45.802;16.114;2024-02-15T01:43:25;50.83;;;26.60;;
48623;SDS011;75490;45.802;16.114;2024-02-15T01:45:52;41.35;;;24.95;;
48623;SDS011;75490;45.802;16.114;2024-02-15T01:48:19;46.92;;;26.52;;
48623;SDS011;75490;45.802;16.114;2024-02-15T01:50:46;48.60;;;26.55;;
48623;SDS011;75490;45.802;16.114;2024-02-15T01:53:15;54.30;;;30.05;;
48623;SDS011;75490;45.802;16.114;2024-02-15T01:55:41;51.13;;;28.85;;
48623;SDS011;75490;45.802;16.114;2024-02-15T01:58:08;54.47;;;29.13;;
48623;SDS011;75490;45.802;16.114;2024-02-15T02:00:35;51.05;;;29.30;;
48623;SDS011;75490;45.802;16.114;2024-02-15T02:03:05;54.10;;;29.02;;
48623;SDS011;75490;45.802;16.114;2024-02-15T02:05:32;53.25;;;29.70;;
48623;SDS011;75490;45.802;16.114;2024-02-15T02:07:59;61.38;;;30.63;;
48623;SDS011;75490;45.802;16.114;2024-02-15T02:10:28;50.08;;;28.13;;
48623;SDS011;75490;45.802;16.114;2024-02-15T02:13:00;49.88;;;27.10;;
48623;SDS011;75490;45.802;16.114;2024-02-15T02:15:33;44.85;;;26.63;;
48623;SDS011;75490;45.802;16.114;2024-02-15T02:18:00;47.28;;;25.60;;
48623;SDS011;75490;45.802;16.114;2024-02-15T02:20:27;45.88;;;26.50;;
48623;SDS011;75490;45.802;16.114;2024-02-15T02:22:55;43.58;;;26.35;;
48623;SDS011;75490;45.802;16.114;2024-02-15T02:28:15;47.28;;;26.00;;
48623;SDS011;75490;45.802;16.114;2024-02-15T02:30:45;53.10;;;28.15;;
48623;SDS011;75490;45.802;16.114;2024-02-15T02:33:12;46.55;;;25.35;;
48623;SDS011;75490;45.802;16.114;2024-02-15T02:35:45;47.65;;;25.63;;
48623;SDS011;75490;45.802;16.114;2024-02-15T02:38:12;45.80;;;27.13;;
48623;SDS011;75490;45.802;16.114;2024-02-15T02:40:40;49.83;;;25.92;;
48623;SDS011;75490;45.802;16.114;2024-02-15T02:43:08;49.35;;;26.98;;
48623;SDS011;75490;45.802;16.114;2024-02-15T02:45:36;44.42;;;25.95;;
48623;SDS011;75490;45.802;16.114;2024-02-15T02:48:04;46.97;;;26.08;;
48623;SDS011;75490;45.802;16.114;2024-02-15T02:50:31;48.97;;;26.85;;
48623;SDS011;75490;45.802;16.114;2024-02-15T02:52:58;43.00;;;26.38;;
48623;SDS011;75490;45.802;16.114;2024-02-15T02:55:25;47.45;;;26.35;;
48623;SDS011;75490;45.802;16.114;2024-02-15T02:57:53;52.28;;;27.08;;
48623;SDS011;75490;45.802;16.114;2024-02-15T03:00:21;49.45;;;26.30;;
48623;SDS011;75490;45.802;16.114;2024-02-15T03:02:49;45.13;;;25.73;;
48623;SDS011;75490;45.802;16.114;2024-02-15T03:05:15;45.05;;;26.63;;
48623;SDS011;75490;45.802;16.114;2024-02-15T03:07:47;47.58;;;26.00;;
48623;SDS011;75490;45.802;16.114;2024-02-15T03:10:13;49.53;;;26.23;;
48623;SDS011;75490;45.802;16.114;2024-02-15T03:12:41;37.95;;;24.17;;
48623;SDS011;75490;45.802;16.114;2024-02-15T03:15:13;43.70;;;25.52;;
48623;SDS011;75490;45.802;16.114;2024-02-15T03:17:43;42.33;;;24.73;;
48623;SDS011;75490;45.802;16.114;2024-02-15T03:20:11;44.92;;;25.13;;
48623;SDS011;75490;45.802;16.114;2024-02-15T03:22:56;42.15;;;24.55;;
48623;SDS011;75490;45.802;16.114;2024-02-15T03:25:24;44.10;;;27.00;;
48623;SDS011;75490;45.802;16.114;2024-02-15T03:27:52;41.17;;;25.02;;
48623;SDS011;75490;45.802;16.114;2024-02-15T03:30:20;39.95;;;24.50;;
48623;SDS011;75490;45.802;16.114;2024-02-15T03:32:48;48.85;;;26.40;;
48623;SDS011;75490;45.802;16.114;2024-02-15T03:35:18;42.22;;;25.55;;
48623;SDS011;75490;45.802;16.114;2024-02-15T03:37:45;41.42;;;25.73;;
48623;SDS011;75490;45.802;16.114;2024-02-15T03:40:12;44.45;;;25.90;;
48623;SDS011;75490;45.802;16.114;2024-02-15T03:42:40;47.10;;;26.70;;
48623;SDS011;75490;45.802;16.114;2024-02-15T03:45:08;41.42;;;26.05;;
48623;SDS011;75490;45.802;16.114;2024-02-15T03:47:35;49.95;;;27.42;;
48623;SDS011;75490;45.802;16.114;2024-02-15T03:50:03;50.85;;;27.10;;
48623;SDS011;75490;45.802;16.114;2024-02-15T03:52:31;50.00;;;27.20;;
48623;SDS011;75490;45.802;16.114;2024-02-15T03:54:58;44.55;;;25.48;;
48623;SDS011;75490;45.802;16.114;2024-02-15T03:57:26;47.30;;;28.02;;
48623;SDS011;75490;45.802;16.114;2024-02-15T03:59:53;41.85;;;25.90;;
48623;SDS011;75490;45.802;16.114;2024-02-15T04:02:20;48.70;;;28.45;;
48623;SDS011;75490;45.802;16.114;2024-02-15T04:04:49;45.63;;;25.90;;
48623;SDS011;75490;45.802;16.114;2024-02-15T04:07:19;50.85;;;25.52;;
48623;SDS011;75490;45.802;16.114;2024-02-15T04:09:46;47.30;;;26.58;;
48623;SDS011;75490;45.802;16.114;2024-02-15T04:12:12;44.67;;;25.08;;
48623;SDS011;75490;45.802;16.114;2024-02-15T04:14:40;47.85;;;25.85;;
48623;SDS011;75490;45.802;16.114;2024-02-15T04:17:07;42.40;;;24.55;;
48623;SDS011;75490;45.802;16.114;2024-02-15T04:19:34;42.75;;;23.80;;
48623;SDS011;75490;45.802;16.114;2024-02-15T04:22:01;44.17;;;25.05;;
48623;SDS011;75490;45.802;16.114;2024-02-15T04:24:31;51.58;;;27.38;;
48623;SDS011;75490;45.802;16.114;2024-02-15T04:26:58;38.80;;;24.48;;
48623;SDS011;75490;45.802;16.114;2024-02-15T04:29:25;45.53;;;25.45;;
48623;SDS011;75490;45.802;16.114;2024-02-15T04:31:52;45.33;;;25.73;;
48623;SDS011;75490;45.802;16.114;2024-02-15T04:34:21;38.88;;;20.88;;
48623;SDS011;75490;45.802;16.114;2024-02-15T04:36:48;41.13;;;23.30;;
48623;SDS011;75490;45.802;16.114;2024-02-15T04:39:20;39.47;;;21.92;;
48623;SDS011;75490;45.802;16.114;2024-02-15T04:41:56;45.70;;;23.77;;
48623;SDS011;75490;45.802;16.114;2024-02-15T04:44:23;44.25;;;25.17;;
48623;SDS011;75490;45.802;16.114;2024-02-15T04:46:54;43.05;;;24.35;;
48623;SDS011;75490;45.802;16.114;2024-02-15T04:49:21;50.03;;;27.60;;
48623;SDS011;75490;45.802;16.114;2024-02-15T04:51:49;49.15;;;27.05;;
48623;SDS011;75490;45.802;16.114;2024-02-15T04:54:16;50.00;;;27.55;;
48623;SDS011;75490;45.802;16.114;2024-02-15T04:56:44;48.42;;;26.42;;
48623;SDS011;75490;45.802;16.114;2024-02-15T04:59:12;55.05;;;26.63;;
48623;SDS011;75490;45.802;16.114;2024-02-15T05:01:41;43.00;;;25.63;;
48623;SDS011;75490;45.802;16.114;2024-02-15T05:04:11;42.45;;;24.55;;
48623;SDS011;75490;45.802;16.114;2024-02-15T05:06:40;50.42;;;26.38;;
48623;SDS011;75490;45.802;16.114;2024-02-15T05:09:09;43.53;;;25.90;;
48623;SDS011;75490;45.802;16.114;2024-02-15T05:11:37;46.83;;;26.30;;
48623;SDS011;75490;45.802;16.114;2024-02-15T05:14:14;48.00;;;26.98;;
48623;SDS011;75490;45.802;16.114;2024-02-15T05:16:48;52.10;;;28.23;;
48623;SDS011;75490;45.802;16.114;2024-02-15T05:19:15;46.40;;;26.05;;
48623;SDS011;75490;45.802;16.114;2024-02-15T05:21:43;49.45;;;25.50;;
48623;SDS011;75490;45.802;16.114;2024-02-15T05:24:13;46.50;;;25.50;;
48623;SDS011;75490;45.802;16.114;2024-02-15T05:26:41;44.70;;;25.33;;
48623;SDS011;75490;45.802;16.114;2024-02-15T05:29:10;44.42;;;24.73;;
48623;SDS011;75490;45.802;16.114;2024-02-15T05:31:37;47.47;;;26.00;;
48623;SDS011;75490;45.802;16.114;2024-02-15T05:34:05;46.00;;;25.77;;
48623;SDS011;75490;45.802;16.114;2024-02-15T05:36:38;46.28;;;26.08;;
48623;SDS011;75490;45.802;16.114;2024-02-15T05:39:05;44.63;;;24.20;;
48623;SDS011;75490;45.802;16.114;2024-02-15T05:41:32;40.05;;;24.20;;
48623;SDS011;75490;45.802;16.114;2024-02-15T05:43:59;38.95;;;23.50;;
48623;SDS011;75490;45.802;16.114;2024-02-15T05:46:26;41.92;;;24.23;;
48623;SDS011;75490;45.802;16.114;2024-02-15T05:48:54;42.40;;;24.25;;
48623;SDS011;75490;45.802;16.114;2024-02-15T05:51:21;44.78;;;23.27;;
48623;SDS011;75490;45.802;16.114;2024-02-15T05:53:49;48.15;;;24.60;;
48623;SDS011;75490;45.802;16.114;2024-02-15T05:56:16;36.35;;;23.08;;
48623;SDS011;75490;45.802;16.114;2024-02-15T05:58:43;44.88;;;24.75;;
48623;SDS011;75490;45.802;16.114;2024-02-15T06:01:10;38.15;;;21.75;;
48623;SDS011;75490;45.802;16.114;2024-02-15T06:03:39;44.55;;;22.05;;
48623;SDS011;75490;45.802;16.114;2024-02-15T06:06:07;35.95;;;20.73;;
48623;SDS011;75490;45.802;16.114;2024-02-15T06:08:34;34.53;;;20.80;;
48623;SDS011;75490;45.802;16.114;2024-02-15T06:11:02;46.67;;;21.48;;
48623;SDS011;75490;45.802;16.114;2024-02-15T06:13:31;34.83;;;19.50;;
48623;SDS011;75490;45.802;16.114;2024-02-15T06:15:58;36.75;;;20.15;;
48623;SDS011;75490;45.802;16.114;2024-02-15T06:18:29;34.95;;;18.30;;
48623;SDS011;75490;45.802;16.114;2024-02-15T06:20:59;38.70;;;20.35;;
48623;SDS011;75490;45.802;16.114;2024-02-15T06:23:26;38.95;;;20.63;;
48623;SDS011;75490;45.802;16.114;2024-02-15T06:25:54;27.23;;;17.58;;
48623;SDS011;75490;45.802;16.114;2024-02-15T06:28:27;37.47;;;21.23;;
48623;SDS011;75490;45.802;16.114;2024-02-15T06:31:12;41.00;;;20.83;;
48623;SDS011;75490;45.802;16.114;2024-02-15T06:33:59;43.40;;;23.17;;
48623;SDS011;75490;45.802;16.114;2024-02-15T06:36:52;62.85;;;33.67;;
48623;SDS011;75490;45.802;16.114;2024-02-15T06:39:39;50.08;;;28.58;;
48623;SDS011;75490;45.802;16.114;2024-02-15T06:42:10;57.33;;;28.83;;
48623;SDS011;75490;45.802;16.114;2024-02-15T06:44:38;43.33;;;24.73;;
48623;SDS011;75490;45.802;16.114;2024-02-15T06:47:06;41.83;;;24.88;;
48623;SDS011;75490;45.802;16.114;2024-02-15T06:49:33;41.55;;;24.00;;
48623;SDS011;75490;45.802;16.114;2024-02-15T06:52:01;39.92;;;22.80;;
48623;SDS011;75490;45.802;16.114;2024-02-15T06:54:29;52.33;;;28.60;;
48623;SDS011;75490;45.802;16.114;2024-02-15T06:56:55;48.55;;;29.55;;
48623;SDS011;75490;45.802;16.114;2024-02-15T06:59:24;64.05;;;35.55;;
48623;SDS011;75490;45.802;16.114;2024-02-15T07:01:51;53.05;;;31.58;;
48623;SDS011;75490;45.802;16.114;2024-02-15T07:04:19;43.70;;;26.15;;
48623;SDS011;75490;45.802;16.114;2024-02-15T07:06:47;59.60;;;33.22;;
48623;SDS011;75490;45.802;16.114;2024-02-15T07:09:15;54.00;;;30.67;;
48623;SDS011;75490;45.802;16.114;2024-02-15T07:11:44;57.42;;;35.70;;
48623;SDS011;75490;45.802;16.114;2024-02-15T07:14:12;48.45;;;30.58;;
48623;SDS011;75490;45.802;16.114;2024-02-15T07:16:40;40.53;;;24.30;;
48623;SDS011;75490;45.802;16.114;2024-02-15T07:19:10;49.45;;;29.42;;
48623;SDS011;75490;45.802;16.114;2024-02-15T07:21:37;41.17;;;28.48;;
48623;SDS011;75490;45.802;16.114;2024-02-15T07:24:04;44.08;;;26.00;;
48623;SDS011;75490;45.802;16.114;2024-02-15T07:26:33;47.88;;;27.58;;
48623;SDS011;75490;45.802;16.114;2024-02-15T07:29:02;40.83;;;22.70;;
48623;SDS011;75490;45.802;16.114;2024-02-15T07:31:34;43.85;;;23.65;;
48623;SDS011;75490;45.802;16.114;2024-02-15T07:34:02;35.28;;;21.60;;
48623;SDS011;75490;45.802;16.114;2024-02-15T07:36:32;36.75;;;20.73;;
48623;SDS011;75490;45.802;16.114;2024-02-15T07:38:59;38.83;;;21.45;;
48623;SDS011;75490;45.802;16.114;2024-02-15T07:41:30;39.03;;;23.60;;
48623;SDS011;75490;45.802;16.114;2024-02-15T07:44:04;39.15;;;22.17;;
48623;SDS011;75490;45.802;16.114;2024-02-15T07:46:32;41.88;;;26.13;;
48623;SDS011;75490;45.802;16.114;2024-02-15T07:49:07;38.83;;;24.08;;
48623;SDS011;75490;45.802;16.114;2024-02-15T07:51:36;42.45;;;23.17;;
48623;SDS011;75490;45.802;16.114;2024-02-15T07:56:38;37.70;;;23.73;;
48623;SDS011;75490;45.802;16.114;2024-02-15T07:59:05;37.72;;;24.60;;
48623;SDS011;75490;45.802;16.114;2024-02-15T08:01:34;43.13;;;24.52;;
48623;SDS011;75490;45.802;16.114;2024-02-15T08:04:02;39.55;;;23.35;;
48623;SDS011;75490;45.802;16.114;2024-02-15T08:06:29;45.67;;;26.05;;
48623;SDS011;75490;45.802;16.114;2024-02-15T08:08:58;41.25;;;22.98;;
48623;SDS011;75490;45.802;16.114;2024-02-15T08:11:25;38.20;;;21.92;;
48623;SDS011;75490;45.802;16.114;2024-02-15T08:13:52;33.75;;;20.33;;
48623;SDS011;75490;45.802;16.114;2024-02-15T08:16:25;35.53;;;22.13;;
48623;SDS011;75490;45.802;16.114;2024-02-15T08:18:54;35.72;;;21.58;;
48623;SDS011;75490;45.802;16.114;2024-02-15T08:21:27;37.33;;;22.13;;
48623;SDS011;75490;45.802;16.114;2024-02-15T08:24:02;34.72;;;21.27;;
48623;SDS011;75490;45.802;16.114;2024-02-15T08:26:36;32.67;;;19.90;;
48623;SDS011;75490;45.802;16.114;2024-02-15T08:29:04;38.10;;;21.38;;
48623;SDS011;75490;45.802;16.114;2024-02-15T08:31:33;30.27;;;19.73;;
48623;SDS011;75490;45.802;16.114;2024-02-15T08:34:03;33.55;;;20.67;;
48623;SDS011;75490;45.802;16.114;2024-02-15T08:36:36;33.63;;;21.00;;
48623;SDS011;75490;45.802;16.114;2024-02-15T08:39:03;28.08;;;20.10;;
48623;SDS011;75490;45.802;16.114;2024-02-15T08:41:31;29.17;;;19.38;;
48623;SDS011;75490;45.802;16.114;2024-02-15T08:43:59;31.98;;;20.50;;
48623;SDS011;75490;45.802;16.114;2024-02-15T08:46:27;30.25;;;19.00;;
48623;SDS011;75490;45.802;16.114;2024-02-15T08:48:54;35.85;;;22.52;;
48623;SDS011;75490;45.802;16.114;2024-02-15T08:51:21;31.35;;;20.38;;
48623;SDS011;75490;45.802;16.114;2024-02-15T08:53:49;28.77;;;19.55;;
48623;SDS011;75490;45.802;16.114;2024-02-15T08:56:15;29.08;;;20.10;;
48623;SDS011;75490;45.802;16.114;2024-02-15T08:58:42;29.50;;;20.42;;
48623;SDS011;75490;45.802;16.114;2024-02-15T09:01:09;29.40;;;19.25;;
48623;SDS011;75490;45.802;16.114;2024-02-15T09:03:39;35.28;;;21.48;;
48623;SDS011;75490;45.802;16.114;2024-02-15T09:06:06;31.90;;;20.88;;
48623;SDS011;75490;45.802;16.114;2024-02-15T09:08:34;35.83;;;20.92;;
48623;SDS011;75490;45.802;16.114;2024-02-15T09:11:01;30.85;;;16.58;;
48623;SDS011;75490;45.802;16.114;2024-02-15T09:13:29;25.42;;;14.95;;
48623;SDS011;75490;45.802;16.114;2024-02-15T09:15:56;26.50;;;16.30;;
48623;SDS011;75490;45.802;16.114;2024-02-15T09:18:23;27.38;;;16.80;;
48623;SDS011;75490;45.802;16.114;2024-02-15T09:20:50;29.23;;;17.40;;
48623;SDS011;75490;45.802;16.114;2024-02-15T09:23:22;24.20;;;15.63;;
48623;SDS011;75490;45.802;16.114;2024-02-15T09:25:50;22.02;;;13.65;;
48623;SDS011;75490;45.802;16.114;2024-02-15T09:28:24;20.42;;;12.52;;
48623;SDS011;75490;45.802;16.114;2024-02-15T09:30:52;20.33;;;11.18;;
48623;SDS011;75490;45.802;16.114;2024-02-15T09:33:19;17.75;;;10.63;;
48623;SDS011;75490;45.802;16.114;2024-02-15T09:35:46;19.83;;;11.43;;
48623;SDS011;75490;45.802;16.114;2024-02-15T09:38:13;21.20;;;12.35;;
48623;SDS011;75490;45.802;16.114;2024-02-15T09:40:43;19.92;;;11.95;;
48623;SDS011;75490;45.802;16.114;2024-02-15T09:43:10;20.75;;;12.38;;
48623;SDS011;75490;45.802;16.114;2024-02-15T09:45:39;20.23;;;12.88;;
48623;SDS011;75490;45.802;16.114;2024-02-15T09:48:07;21.77;;;13.52;;
48623;SDS011;75490;45.802;16.114;2024-02-15T09:50:37;23.05;;;14.18;;
48623;SDS011;75490;45.802;16.114;2024-02-15T09:53:09;23.83;;;13.82;;
48623;SDS011;75490;45.802;16.114;2024-02-15T09:55:36;24.75;;;15.02;;
48623;SDS011;75490;45.802;16.114;2024-02-15T09:58:05;22.75;;;12.82;;
48623;SDS011;75490;45.802;16.114;2024-02-15T10:00:32;24.52;;;15.07;;
48623;SDS011;75490;45.802;16.114;2024-02-15T10:03:02;21.35;;;14.13;;
48623;SDS011;75490;45.802;16.114;2024-02-15T10:05:32;21.30;;;12.90;;
48623;SDS011;75490;45.802;16.114;2024-02-15T10:07:58;22.30;;;13.75;;
48623;SDS011;75490;45.802;16.114;2024-02-15T10:10:27;22.70;;;14.13;;
48623;SDS011;75490;45.802;16.114;2024-02-15T10:12:54;20.80;;;14.35;;
48623;SDS011;75490;45.802;16.114;2024-02-15T10:15:33;18.10;;;12.20;;
48623;SDS011;75490;45.802;16.114;2024-02-15T10:18:04;20.25;;;11.68;;
48623;SDS011;75490;45.802;16.114;2024-02-15T10:20:35;17.65;;;11.30;;
48623;SDS011;75490;45.802;16.114;2024-02-15T10:25:35;14.52;;;9.27;;
48623;SDS011;75490;45.802;16.114;2024-02-15T10:28:20;13.57;;;8.88;;
48623;SDS011;75490;45.802;16.114;2024-02-15T10:30:50;12.93;;;8.65;;
48623;SDS011;75490;45.802;16.114;2024-02-15T10:33:20;11.90;;;8.05;;
48623;SDS011;75490;45.802;16.114;2024-02-15T10:36:04;14.48;;;8.40;;
48623;SDS011;75490;45.802;16.114;2024-02-15T10:38:33;14.52;;;9.57;;
48623;SDS011;75490;45.802;16.114;2024-02-15T10:41:04;13.82;;;9.45;;
48623;SDS011;75490;45.802;16.114;2024-02-15T10:43:33;12.93;;;7.95;;
48623;SDS011;75490;45.802;16.114;2024-02-15T10:46:01;12.43;;;7.50;;
48623;SDS011;75490;45.802;16.114;2024-02-15T10:48:29;11.30;;;7.13;;
48623;SDS011;75490;45.802;16.114;2024-02-15T10:50:59;10.65;;;6.25;;
48623;SDS011;75490;45.802;16.114;2024-02-15T10:53:28;12.57;;;6.07;;
48623;SDS011;75490;45.802;16.114;2024-02-15T10:59:26;11.70;;;6.70;;
48623;SDS011;75490;45.802;16.114;2024-02-15T11:01:59;12.73;;;7.13;;
48623;SDS011;75490;45.802;16.114;2024-02-15T11:04:27;11.93;;;7.30;;
48623;SDS011;75490;45.802;16.114;2024-02-15T11:07:02;13.48;;;6.63;;
48623;SDS011;75490;45.802;16.114;2024-02-15T11:09:33;11.13;;;6.40;;
48623;SDS011;75490;45.802;16.114;2024-02-15T11:12:00;10.15;;;5.95;;
48623;SDS011;75490;45.802;16.114;2024-02-15T11:14:32;8.02;;;4.85;;
48623;SDS011;75490;45.802;16.114;2024-02-15T11:17:01;9.70;;;5.30;;
48623;SDS011;75490;45.802;16.114;2024-02-15T11:22:09;14.07;;;6.88;;
48623;SDS011;75490;45.802;16.114;2024-02-15T11:24:37;11.52;;;6.97;;
48623;SDS011;75490;45.802;16.114;2024-02-15T11:27:11;13.13;;;7.85;;
48623;SDS011;75490;45.802;16.114;2024-02-15T11:32:49;12.70;;;5.97;;
48623;SDS011;75490;45.802;16.114;2024-02-15T11:35:23;10.57;;;5.78;;
48623;SDS011;75490;45.802;16.114;2024-02-15T11:37:52;9.80;;;6.25;;
48623;SDS011;75490;45.802;16.114;2024-02-15T11:43:36;10.18;;;5.60;;
48623;SDS011;75490;45.802;16.114;2024-02-15T11:46:18;11.45;;;6.25;;
48623;SDS011;75490;45.802;16.114;2024-02-15T11:48:48;8.93;;;5.05;;
48623;SDS011;75490;45.802;16.114;2024-02-15T11:56:26;10.57;;;5.53;;
48623;SDS011;75490;45.802;16.114;2024-02-15T11:59:04;9.73;;;4.95;;
48623;SDS011;75490;45.802;16.114;2024-02-15T12:01:58;16.80;;;6.05;;
48623;SDS011;75490;45.802;16.114;2024-02-15T12:04:47;17.30;;;6.57;;
48623;SDS011;75490;45.802;16.114;2024-02-15T12:07:33;10.32;;;5.90;;
48623;SDS011;75490;45.802;16.114;2024-02-15T12:10:20;13.32;;;7.07;;
48623;SDS011;75490;45.802;16.114;2024-02-15T12:13:05;11.38;;;5.65;;
48623;SDS011;75490;45.802;16.114;2024-02-15T12:16:00;9.70;;;5.45;;
48623;SDS011;75490;45.802;16.114;2024-02-15T12:18:46;7.55;;;4.45;;
48623;SDS011;75490;45.802;16.114;2024-02-15T12:21:17;8.40;;;5.00;;
48623;SDS011;75490;45.802;16.114;2024-02-15T12:23:49;7.53;;;4.18;;
48623;SDS011;75490;45.802;16.114;2024-02-15T12:26:22;7.20;;;4.05;;
48623;SDS011;75490;45.802;16.114;2024-02-15T12:28:52;9.15;;;4.25;;
48623;SDS011;75490;45.802;16.114;2024-02-15T12:31:24;7.32;;;3.45;;
48623;SDS011;75490;45.802;16.114;2024-02-15T12:34:06;9.10;;;4.47;;
48623;SDS011;75490;45.802;16.114;2024-02-15T12:36:38;7.60;;;3.83;;
48623;SDS011;75490;45.802;16.114;2024-02-15T12:39:11;10.10;;;4.72;;
48623;SDS011;75490;45.802;16.114;2024-02-15T12:41:41;8.20;;;4.40;;
48623;SDS011;75490;45.802;16.114;2024-02-15T12:44:19;8.73;;;4.00;;
48623;SDS011;75490;45.802;16.114;2024-02-15T12:47:06;7.68;;;4.18;;
48623;SDS011;75490;45.802;16.114;2024-02-15T12:49:36;13.32;;;6.22;;
48623;SDS011;75490;45.802;16.114;2024-02-15T12:55:09;9.30;;;4.85;;
48623;SDS011;75490;45.802;16.114;2024-02-15T12:57:38;10.15;;;3.92;;
48623;SDS011;75490;45.802;16.114;2024-02-15T13:00:08;9.27;;;3.65;;
48623;SDS011;75490;45.802;16.114;2024-02-15T13:02:47;9.48;;;4.60;;
48623;SDS011;75490;45.802;16.114;2024-02-15T13:05:16;7.80;;;4.03;;
48623;SDS011;75490;45.802;16.114;2024-02-15T13:07:46;11.20;;;4.60;;
48623;SDS011;75490;45.802;16.114;2024-02-15T13:10:15;8.13;;;4.38;;
48623;SDS011;75490;45.802;16.114;2024-02-15T13:12:43;7.45;;;3.70;;
48623;SDS011;75490;45.802;16.114;2024-02-15T13:17:44;9.70;;;3.88;;
48623;SDS011;75490;45.802;16.114;2024-02-15T13:20:20;7.38;;;4.10;;
48623;SDS011;75490;45.802;16.114;2024-02-15T13:22:58;11.70;;;5.68;;
48623;SDS011;75490;45.802;16.114;2024-02-15T13:25:38;10.02;;;4.72;;
48623;SDS011;75490;45.802;16.114;2024-02-15T13:28:06;8.57;;;4.63;;
48623;SDS011;75490;45.802;16.114;2024-02-15T13:30:36;11.63;;;5.80;;
48623;SDS011;75490;45.802;16.114;2024-02-15T13:33:04;13.57;;;6.78;;
48623;SDS011;75490;45.802;16.114;2024-02-15T13:35:32;9.05;;;5.00;;
48623;SDS011;75490;45.802;16.114;2024-02-15T13:37:59;17.92;;;9.95;;
48623;SDS011;75490;45.802;16.114;2024-02-15T13:40:26;15.13;;;9.18;;
48623;SDS011;75490;45.802;16.114;2024-02-15T13:42:55;32.13;;;19.48;;
48623;SDS011;75490;45.802;16.114;2024-02-15T13:45:29;12.63;;;5.63;;
48623;SDS011;75490;45.802;16.114;2024-02-15T13:48:06;22.60;;;14.30;;
48623;SDS011;75490;45.802;16.114;2024-02-15T13:50:34;10.07;;;6.85;;
48623;SDS011;75490;45.802;16.114;2024-02-15T13:53:03;9.60;;;4.93;;
48623;SDS011;75490;45.802;16.114;2024-02-15T13:55:31;12.30;;;4.85;;
48623;SDS011;75490;45.802;16.114;2024-02-15T13:58:02;9.93;;;4.20;;
48623;SDS011;75490;45.802;16.114;2024-02-15T14:00:29;10.07;;;4.55;;
48623;SDS011;75490;45.802;16.114;2024-02-15T14:02:57;8.85;;;4.20;;
48623;SDS011;75490;45.802;16.114;2024-02-15T14:05:26;6.82;;;4.00;;
48623;SDS011;75490;45.802;16.114;2024-02-15T14:08:01;8.32;;;4.47;;
48623;SDS011;75490;45.802;16.114;2024-02-15T14:10:30;17.02;;;10.60;;
48623;SDS011;75490;45.802;16.114;2024-02-15T14:13:00;11.60;;;6.45;;
48623;SDS011;75490;45.802;16.114;2024-02-15T14:15:32;15.77;;;8.85;;
48623;SDS011;75490;45.802;16.114;2024-02-15T14:18:06;14.27;;;7.13;;
48623;SDS011;75490;45.802;16.114;2024-02-15T14:20:43;10.57;;;5.47;;
48623;SDS011;75490;45.802;16.114;2024-02-15T14:23:15;11.88;;;6.70;;
48623;SDS011;75490;45.802;16.114;2024-02-15T14:25:43;9.15;;;5.70;;
48623;SDS011;75490;45.802;16.114;2024-02-15T14:28:25;13.25;;;7.70;;
48623;SDS011;75490;45.802;16.114;2024-02-15T14:30:52;17.00;;;9.32;;
48623;SDS011;75490;45.802;16.114;2024-02-15T14:33:38;13.85;;;7.30;;
48623;SDS011;75490;45.802;16.114;2024-02-15T14:36:07;18.38;;;9.18;;
48623;SDS011;75490;45.802;16.114;2024-02-15T14:38:34;18.45;;;9.48;;
48623;SDS011;75490;45.802;16.114;2024-02-15T14:41:02;7.72;;;3.97;;
48623;SDS011;75490;45.802;16.114;2024-02-15T14:43:32;6.53;;;2.83;;
48623;SDS011;75490;45.802;16.114;2024-02-15T14:45:59;8.23;;;3.90;;
48623;SDS011;75490;45.802;16.114;2024-02-15T14:48:28;10.30;;;4.43;;
48623;SDS011;75490;45.802;16.114;2024-02-15T14:50:59;6.35;;;3.10;;
48623;SDS011;75490;45.802;16.114;2024-02-15T14:53:27;6.72;;;2.38;;
48623;SDS011;75490;45.802;16.114;2024-02-15T14:55:55;5.07;;;2.13;;
48623;SDS011;75490;45.802;16.114;2024-02-15T14:58:22;6.60;;;2.65;;